sensor_id;sensor_type;location;lat;lon;timestamp;pressure;altitude;pressure_sealevel;temperature;humidity
27712;BME280;2377;51.734;8.950;2023-04-30T00:01:26;98463.91;;;7.59;87.55
27712;BME280;2377;51.734;8.950;2023-04-30T00:03:54;98458.19;;;7.57;87.82
27712;BME280;2377;51.734;8.950;2023-04-30T00:06:21;98459.53;;;7.53;88.26
27712;BME280;2377;51.734;8.950;2023-04-30T00:08:48;98461.47;;;7.51;87.70
27712;BME280;2377;51.734;8.950;2023-04-30T00:11:17;98463.03;;;7.52;87.28
27712;BME280;2377;51.734;8.950;2023-04-30T00:13:47;98456.69;;;7.48;87.15
27712;BME280;2377;51.734;8.950;2023-04-30T00:16:14;98459.00;;;7.43;87.15
27712;BME280;2377;51.734;8.950;2023-04-30T00:18:41;98452.84;;;7.37;86.81
27712;BME280;2377;51.734;8.950;2023-04-30T00:21:08;98458.63;;;7.31;86.76
27712;BME280;2377;51.734;8.950;2023-04-30T00:23:35;98451.88;;;7.23;86.51
27712;BME280;2377;51.734;8.950;2023-04-30T00:26:02;98454.25;;;7.25;86.68
27712;BME280;2377;51.734;8.950;2023-04-30T00:28:31;98452.88;;;7.22;87.26
27712;BME280;2377;51.734;8.950;2023-04-30T00:30:58;98452.56;;;7.17;86.43
27712;BME280;2377;51.734;8.950;2023-04-30T00:33:25;98462.16;;;7.15;86.31
27712;BME280;2377;51.734;8.950;2023-04-30T00:35:52;98453.44;;;7.09;86.47
27712;BME280;2377;51.734;8.950;2023-04-30T00:38:19;98457.13;;;7.07;86.63
27712;BME280;2377;51.734;8.950;2023-04-30T00:40:46;98461.94;;;7.02;86.13
27712;BME280;2377;51.734;8.950;2023-04-30T00:43:13;98461.31;;;6.99;86.26
27712;BME280;2377;51.734;8.950;2023-04-30T00:45:41;98465.63;;;6.99;86.64
27712;BME280;2377;51.734;8.950;2023-04-30T00:48:09;98473.25;;;6.99;86.31
27712;BME280;2377;51.734;8.950;2023-04-30T00:50:37;98467.53;;;6.97;86.42
27712;BME280;2377;51.734;8.950;2023-04-30T00:53:05;98465.69;;;6.91;86.35
27712;BME280;2377;51.734;8.950;2023-04-30T00:55:32;98469.53;;;6.87;86.60
27712;BME280;2377;51.734;8.950;2023-04-30T00:58:00;98468.31;;;6.83;85.55
27712;BME280;2377;51.734;8.950;2023-04-30T01:00:28;98470.72;;;6.76;86.29
27712;BME280;2377;51.734;8.950;2023-04-30T01:02:57;98474.75;;;6.70;85.70
27712;BME280;2377;51.734;8.950;2023-04-30T01:05:24;98474.03;;;6.62;85.31
27712;BME280;2377;51.734;8.950;2023-04-30T01:07:53;98479.59;;;6.57;85.27
27712;BME280;2377;51.734;8.950;2023-04-30T01:10:26;98482.31;;;6.55;85.25
27712;BME280;2377;51.734;8.950;2023-04-30T01:13:02;98480.97;;;6.45;85.81
27712;BME280;2377;51.734;8.950;2023-04-30T01:15:37;98483.66;;;6.43;86.10
27712;BME280;2377;51.734;8.950;2023-04-30T01:18:17;98480.50;;;6.41;86.30
27712;BME280;2377;51.734;8.950;2023-04-30T01:21:04;98485.56;;;6.41;85.93
27712;BME280;2377;51.734;8.950;2023-04-30T01:23:57;98487.50;;;6.39;85.96
27712;BME280;2377;51.734;8.950;2023-04-30T01:26:49;98486.88;;;6.37;86.61
27712;BME280;2377;51.734;8.950;2023-04-30T01:29:23;98482.75;;;6.36;86.47
27712;BME280;2377;51.734;8.950;2023-04-30T01:31:50;98482.63;;;6.29;86.15
27712;BME280;2377;51.734;8.950;2023-04-30T01:34:17;98480.78;;;6.23;85.85
27712;BME280;2377;51.734;8.950;2023-04-30T01:37:00;98487.63;;;6.14;85.69
27712;BME280;2377;51.734;8.950;2023-04-30T01:39:49;98494.34;;;6.07;85.71
27712;BME280;2377;51.734;8.950;2023-04-30T01:42:29;98485.31;;;6.05;85.64
27712;BME280;2377;51.734;8.950;2023-04-30T01:45:15;98492.16;;;5.96;84.69
27712;BME280;2377;51.734;8.950;2023-04-30T01:47:51;98488.03;;;5.87;85.69
27712;BME280;2377;51.734;8.950;2023-04-30T01:50:33;98482.34;;;5.85;85.58
27712;BME280;2377;51.734;8.950;2023-04-30T01:53:08;98484.25;;;5.83;85.67
27712;BME280;2377;51.734;8.950;2023-04-30T01:55:43;98482.03;;;5.80;85.73
27712;BME280;2377;51.734;8.950;2023-04-30T01:58:14;98485.72;;;5.77;85.25
27712;BME280;2377;51.734;8.950;2023-04-30T02:00:42;98491.56;;;5.78;86.11
27712;BME280;2377;51.734;8.950;2023-04-30T02:03:09;98493.59;;;5.82;86.50
27712;BME280;2377;51.734;8.950;2023-04-30T02:05:36;98495.81;;;5.85;86.48
27712;BME280;2377;51.734;8.950;2023-04-30T02:08:05;98496.00;;;5.84;86.43
27712;BME280;2377;51.734;8.950;2023-04-30T02:10:33;98501.06;;;5.84;86.71
27712;BME280;2377;51.734;8.950;2023-04-30T02:13:00;98497.75;;;5.83;86.81
27712;BME280;2377;51.734;8.950;2023-04-30T02:15:27;98497.56;;;5.85;86.52
27712;BME280;2377;51.734;8.950;2023-04-30T02:17:55;98494.25;;;5.84;86.45
27712;BME280;2377;51.734;8.950;2023-04-30T02:20:22;98497.41;;;5.86;86.51
27712;BME280;2377;51.734;8.950;2023-04-30T02:22:50;98495.66;;;5.87;86.66
27712;BME280;2377;51.734;8.950;2023-04-30T02:25:17;98489.66;;;5.88;86.39
27712;BME280;2377;51.734;8.950;2023-04-30T02:27:44;98495.66;;;5.87;86.47
27712;BME280;2377;51.734;8.950;2023-04-30T02:30:11;98495.34;;;5.82;86.61
27712;BME280;2377;51.734;8.950;2023-04-30T02:32:38;98493.16;;;5.79;86.72
27712;BME280;2377;51.734;8.950;2023-04-30T02:35:08;98493.66;;;5.74;86.60
27712;BME280;2377;51.734;8.950;2023-04-30T02:37:35;98502.97;;;5.73;86.94
27712;BME280;2377;51.734;8.950;2023-04-30T02:40:03;98503.97;;;5.64;86.95
27712;BME280;2377;51.734;8.950;2023-04-30T02:42:31;98503.97;;;5.64;86.76
27712;BME280;2377;51.734;8.950;2023-04-30T02:44:58;98505.91;;;5.62;86.78
27712;BME280;2377;51.734;8.950;2023-04-30T02:47:25;98505.25;;;5.60;86.61
27712;BME280;2377;51.734;8.950;2023-04-30T02:49:52;98502.09;;;5.58;86.90
27712;BME280;2377;51.734;8.950;2023-04-30T02:52:20;98504.97;;;5.55;86.39
27712;BME280;2377;51.734;8.950;2023-04-30T02:54:48;98498.28;;;5.54;86.37
27712;BME280;2377;51.734;8.950;2023-04-30T02:57:15;98500.19;;;5.52;86.50
27712;BME280;2377;51.734;8.950;2023-04-30T02:59:42;98497.03;;;5.50;86.76
27712;BME280;2377;51.734;8.950;2023-04-30T03:02:10;98501.31;;;5.49;86.82
27712;BME280;2377;51.734;8.950;2023-04-30T03:04:38;98493.88;;;5.48;86.55
27712;BME280;2377;51.734;8.950;2023-04-30T03:07:05;98498.47;;;5.44;86.30
27712;BME280;2377;51.734;8.950;2023-04-30T03:09:34;98505.44;;;5.42;86.08
27712;BME280;2377;51.734;8.950;2023-04-30T03:12:01;98499.94;;;5.39;86.46
27712;BME280;2377;51.734;8.950;2023-04-30T03:14:28;98502.75;;;5.36;86.31
27712;BME280;2377;51.734;8.950;2023-04-30T03:16:55;98504.84;;;5.32;86.35
27712;BME280;2377;51.734;8.950;2023-04-30T03:19:22;98504.38;;;5.28;86.63
27712;BME280;2377;51.734;8.950;2023-04-30T03:21:50;98507.06;;;5.27;86.27
27712;BME280;2377;51.734;8.950;2023-04-30T03:24:17;98508.19;;;5.24;86.61
27712;BME280;2377;51.734;8.950;2023-04-30T03:26:46;98501.84;;;5.20;86.75
27712;BME280;2377;51.734;8.950;2023-04-30T03:29:13;98508.81;;;5.18;86.95
27712;BME280;2377;51.734;8.950;2023-04-30T03:31:40;98513.25;;;5.16;86.41
27712;BME280;2377;51.734;8.950;2023-04-30T03:34:07;98515.31;;;5.13;86.88
27712;BME280;2377;51.734;8.950;2023-04-30T03:36:34;98525.75;;;5.09;86.63
27712;BME280;2377;51.734;8.950;2023-04-30T03:39:02;98516.75;;;5.07;86.99
27712;BME280;2377;51.734;8.950;2023-04-30T03:41:30;98521.81;;;5.07;87.14
27712;BME280;2377;51.734;8.950;2023-04-30T03:43:58;98512.00;;;5.04;87.04
27712;BME280;2377;51.734;8.950;2023-04-30T03:46:25;98515.47;;;5.03;86.96
27712;BME280;2377;51.734;8.950;2023-04-30T03:48:52;98514.03;;;5.00;86.68
27712;BME280;2377;51.734;8.950;2023-04-30T03:51:20;98509.94;;;4.99;86.73
27712;BME280;2377;51.734;8.950;2023-04-30T03:53:47;98518.16;;;4.93;86.38
27712;BME280;2377;51.734;8.950;2023-04-30T03:56:14;98514.97;;;4.75;86.17
27712;BME280;2377;51.734;8.950;2023-04-30T03:58:41;98516.25;;;4.62;86.36
27712;BME280;2377;51.734;8.950;2023-04-30T04:01:10;98519.88;;;4.60;87.18
27712;BME280;2377;51.734;8.950;2023-04-30T04:03:37;98521.44;;;4.61;87.05
27712;BME280;2377;51.734;8.950;2023-04-30T04:06:04;98523.38;;;4.59;87.04
27712;BME280;2377;51.734;8.950;2023-04-30T04:08:31;98525.09;;;4.58;86.82
27712;BME280;2377;51.734;8.950;2023-04-30T04:10:59;98524.94;;;4.60;87.33
27712;BME280;2377;51.734;8.950;2023-04-30T04:13:26;98527.31;;;4.61;86.76
27712;BME280;2377;51.734;8.950;2023-04-30T04:15:53;98514.81;;;4.60;86.50
27712;BME280;2377;51.734;8.950;2023-04-30T04:18:21;98525.72;;;4.60;87.73
27712;BME280;2377;51.734;8.950;2023-04-30T04:20:48;98527.16;;;4.63;87.92
27712;BME280;2377;51.734;8.950;2023-04-30T04:23:15;98525.91;;;4.67;88.20
27712;BME280;2377;51.734;8.950;2023-04-30T04:25:42;98523.22;;;4.69;88.17
27712;BME280;2377;51.734;8.950;2023-04-30T04:28:14;98518.44;;;4.65;87.49
27712;BME280;2377;51.734;8.950;2023-04-30T04:30:41;98531.28;;;4.64;87.79
27712;BME280;2377;51.734;8.950;2023-04-30T04:33:08;98520.38;;;4.63;88.06
27712;BME280;2377;51.734;8.950;2023-04-30T04:35:37;98523.97;;;4.61;87.96
27712;BME280;2377;51.734;8.950;2023-04-30T04:38:04;98530.31;;;4.65;88.29
27712;BME280;2377;51.734;8.950;2023-04-30T04:40:31;98523.06;;;4.62;87.91
27712;BME280;2377;51.734;8.950;2023-04-30T04:43:00;98522.72;;;4.65;88.15
27712;BME280;2377;51.734;8.950;2023-04-30T04:45:27;98532.56;;;4.68;88.09
27712;BME280;2377;51.734;8.950;2023-04-30T04:47:54;98530.34;;;4.73;88.72
27712;BME280;2377;51.734;8.950;2023-04-30T04:50:21;98533.53;;;4.75;88.60
27712;BME280;2377;51.734;8.950;2023-04-30T04:52:49;98526.38;;;4.79;88.76
27712;BME280;2377;51.734;8.950;2023-04-30T04:55:17;98532.25;;;4.79;88.63
27712;BME280;2377;51.734;8.950;2023-04-30T04:57:44;98532.25;;;4.79;88.61
27712;BME280;2377;51.734;8.950;2023-04-30T05:00:12;98530.97;;;4.83;88.66
27712;BME280;2377;51.734;8.950;2023-04-30T05:02:39;98527.50;;;4.84;88.65
27712;BME280;2377;51.734;8.950;2023-04-30T05:05:07;98534.16;;;4.85;88.61
27712;BME280;2377;51.734;8.950;2023-04-30T05:07:35;98533.81;;;4.88;89.59
27712;BME280;2377;51.734;8.950;2023-04-30T05:10:05;98535.09;;;4.93;89.13
27712;BME280;2377;51.734;8.950;2023-04-30T05:12:32;98537.50;;;4.94;89.91
27712;BME280;2377;51.734;8.950;2023-04-30T05:15:00;98541.13;;;5.00;90.06
27712;BME280;2377;51.734;8.950;2023-04-30T05:17:27;98543.69;;;5.08;89.53
27712;BME280;2377;51.734;8.950;2023-04-30T05:19:54;98539.41;;;5.08;89.78
27712;BME280;2377;51.734;8.950;2023-04-30T05:22:21;98535.28;;;5.16;89.84
27712;BME280;2377;51.734;8.950;2023-04-30T05:24:48;98537.97;;;5.22;90.11
27712;BME280;2377;51.734;8.950;2023-04-30T05:27:19;98537.94;;;5.30;90.29
27712;BME280;2377;51.734;8.950;2023-04-30T05:29:46;98539.66;;;5.38;90.29
27712;BME280;2377;51.734;8.950;2023-04-30T05:32:13;98543.00;;;5.47;90.60
27712;BME280;2377;51.734;8.950;2023-04-30T05:34:40;98547.72;;;5.50;90.45
27712;BME280;2377;51.734;8.950;2023-04-30T05:37:07;98550.28;;;5.58;90.68
27712;BME280;2377;51.734;8.950;2023-04-30T05:39:34;98553.09;;;5.63;91.16
27712;BME280;2377;51.734;8.950;2023-04-30T05:42:01;98555.66;;;5.71;92.33
27712;BME280;2377;51.734;8.950;2023-04-30T05:44:30;98559.41;;;5.84;92.35
27712;BME280;2377;51.734;8.950;2023-04-30T05:46:57;98561.28;;;5.98;92.88
27712;BME280;2377;51.734;8.950;2023-04-30T05:49:24;98566.66;;;6.11;92.77
27712;BME280;2377;51.734;8.950;2023-04-30T05:51:51;98555.19;;;6.24;92.92
27712;BME280;2377;51.734;8.950;2023-04-30T05:54:18;98563.38;;;6.34;92.50
27712;BME280;2377;51.734;8.950;2023-04-30T05:56:45;98559.84;;;6.43;92.99
27712;BME280;2377;51.734;8.950;2023-04-30T05:59:12;98560.25;;;6.55;93.09
27712;BME280;2377;51.734;8.950;2023-04-30T06:01:40;98564.47;;;6.63;92.35
27712;BME280;2377;51.734;8.950;2023-04-30T06:04:07;98563.47;;;6.72;92.43
27712;BME280;2377;51.734;8.950;2023-04-30T06:06:35;98558.97;;;6.82;91.78
27712;BME280;2377;51.734;8.950;2023-04-30T06:09:02;98553.56;;;6.85;91.79
27712;BME280;2377;51.734;8.950;2023-04-30T06:11:29;98556.38;;;6.90;91.37
27712;BME280;2377;51.734;8.950;2023-04-30T06:13:57;98557.63;;;6.94;90.82
27712;BME280;2377;51.734;8.950;2023-04-30T06:16:24;98556.59;;;7.04;90.60
27712;BME280;2377;51.734;8.950;2023-04-30T06:18:52;98555.59;;;7.13;91.55
27712;BME280;2377;51.734;8.950;2023-04-30T06:21:19;98561.22;;;7.23;91.56
27712;BME280;2377;51.734;8.950;2023-04-30T06:23:50;98563.66;;;7.31;90.83
27712;BME280;2377;51.734;8.950;2023-04-30T06:26:18;98571.09;;;7.41;90.35
27712;BME280;2377;51.734;8.950;2023-04-30T06:28:45;98576.25;;;7.48;90.33
27712;BME280;2377;51.734;8.950;2023-04-30T06:31:12;98574.50;;;7.48;88.98
27712;BME280;2377;51.734;8.950;2023-04-30T06:33:39;98579.41;;;7.50;88.74
27712;BME280;2377;51.734;8.950;2023-04-30T06:36:07;98582.41;;;7.53;89.17
27712;BME280;2377;51.734;8.950;2023-04-30T06:38:34;98580.91;;;7.59;89.13
27712;BME280;2377;51.734;8.950;2023-04-30T06:41:02;98586.88;;;7.66;89.09
27712;BME280;2377;51.734;8.950;2023-04-30T06:43:29;98588.75;;;7.72;88.55
27712;BME280;2377;51.734;8.950;2023-04-30T06:45:56;98583.56;;;7.80;88.79
27712;BME280;2377;51.734;8.950;2023-04-30T06:48:23;98583.13;;;7.92;88.78
27712;BME280;2377;51.734;8.950;2023-04-30T06:50:50;98586.22;;;8.02;88.75
27712;BME280;2377;51.734;8.950;2023-04-30T06:53:19;98586.03;;;8.18;89.66
27712;BME280;2377;51.734;8.950;2023-04-30T06:55:48;98579.16;;;8.34;88.15
27712;BME280;2377;51.734;8.950;2023-04-30T06:58:15;98585.16;;;8.41;86.59
27712;BME280;2377;51.734;8.950;2023-04-30T07:00:43;98575.91;;;8.55;86.57
27712;BME280;2377;51.734;8.950;2023-04-30T07:03:10;98582.28;;;8.65;86.10
27712;BME280;2377;51.734;8.950;2023-04-30T07:05:37;98581.25;;;8.81;86.28
27712;BME280;2377;51.734;8.950;2023-04-30T07:08:06;98586.56;;;9.01;85.59
27712;BME280;2377;51.734;8.950;2023-04-30T07:10:34;98585.09;;;9.14;85.26
27712;BME280;2377;51.734;8.950;2023-04-30T07:13:01;98585.22;;;9.27;84.68
27712;BME280;2377;51.734;8.950;2023-04-30T07:15:28;98582.75;;;9.40;83.97
27712;BME280;2377;51.734;8.950;2023-04-30T07:17:55;98588.97;;;9.59;84.27
27712;BME280;2377;51.734;8.950;2023-04-30T07:20:23;98591.44;;;9.74;83.49
27712;BME280;2377;51.734;8.950;2023-04-30T07:22:50;98593.66;;;9.84;82.23
27712;BME280;2377;51.734;8.950;2023-04-30T07:25:17;98588.38;;;9.92;80.79
27712;BME280;2377;51.734;8.950;2023-04-30T07:27:45;98595.34;;;10.05;80.36
27712;BME280;2377;51.734;8.950;2023-04-30T07:30:13;98588.88;;;10.15;79.43
27712;BME280;2377;51.734;8.950;2023-04-30T07:32:40;98595.03;;;10.21;79.17
27712;BME280;2377;51.734;8.950;2023-04-30T07:35:08;98596.47;;;10.30;78.75
27712;BME280;2377;51.734;8.950;2023-04-30T07:37:35;98594.31;;;10.41;79.04
27712;BME280;2377;51.734;8.950;2023-04-30T07:40:03;98596.34;;;10.52;78.12
27712;BME280;2377;51.734;8.950;2023-04-30T07:42:32;98598.34;;;10.63;78.64
27712;BME280;2377;51.734;8.950;2023-04-30T07:45:00;98598.97;;;10.78;77.99
27712;BME280;2377;51.734;8.950;2023-04-30T07:47:29;98597.81;;;10.94;77.93
27712;BME280;2377;51.734;8.950;2023-04-30T07:49:56;98596.66;;;11.10;77.23
27712;BME280;2377;51.734;8.950;2023-04-30T07:52:23;98599.03;;;11.25;77.45
27712;BME280;2377;51.734;8.950;2023-04-30T07:54:50;98607.09;;;11.35;77.25
27712;BME280;2377;51.734;8.950;2023-04-30T07:57:17;98605.31;;;11.49;77.13
27712;BME280;2377;51.734;8.950;2023-04-30T07:59:44;98606.69;;;11.58;75.85
27712;BME280;2377;51.734;8.950;2023-04-30T08:02:13;98603.13;;;11.66;74.74
27712;BME280;2377;51.734;8.950;2023-04-30T08:04:40;98610.63;;;11.68;72.59
27712;BME280;2377;51.734;8.950;2023-04-30T08:07:07;98600.56;;;11.73;73.75
27712;BME280;2377;51.734;8.950;2023-04-30T08:09:34;98602.50;;;11.84;72.94
27712;BME280;2377;51.734;8.950;2023-04-30T08:12:01;98610.59;;;11.94;72.43
27712;BME280;2377;51.734;8.950;2023-04-30T08:14:30;98599.34;;;12.02;71.96
27712;BME280;2377;51.734;8.950;2023-04-30T08:16:58;98600.06;;;12.16;72.66
27712;BME280;2377;51.734;8.950;2023-04-30T08:19:27;98598.47;;;12.28;73.36
27712;BME280;2377;51.734;8.950;2023-04-30T08:21:54;98599.81;;;12.37;73.61
27712;BME280;2377;51.734;8.950;2023-04-30T08:24:21;98603.94;;;12.38;73.68
27712;BME280;2377;51.734;8.950;2023-04-30T08:26:48;98605.72;;;12.44;71.38
27712;BME280;2377;51.734;8.950;2023-04-30T08:29:15;98600.56;;;12.51;70.48
27712;BME280;2377;51.734;8.950;2023-04-30T08:31:42;98602.69;;;12.61;67.61
27712;BME280;2377;51.734;8.950;2023-04-30T08:34:09;98594.41;;;12.59;70.96
27712;BME280;2377;51.734;8.950;2023-04-30T08:36:38;98598.19;;;12.81;69.80
27712;BME280;2377;51.734;8.950;2023-04-30T08:39:05;98596.97;;;12.90;69.20
27712;BME280;2377;51.734;8.950;2023-04-30T08:41:33;98596.94;;;12.97;68.43
27712;BME280;2377;51.734;8.950;2023-04-30T08:44:01;98604.75;;;13.09;69.04
27712;BME280;2377;51.734;8.950;2023-04-30T08:46:31;98605.81;;;13.26;70.13
27712;BME280;2377;51.734;8.950;2023-04-30T08:49:00;98609.66;;;13.42;70.23
27712;BME280;2377;51.734;8.950;2023-04-30T08:51:30;98613.66;;;13.38;65.22
27712;BME280;2377;51.734;8.950;2023-04-30T08:53:59;98608.97;;;13.28;64.46
27712;BME280;2377;51.734;8.950;2023-04-30T08:56:27;98600.78;;;13.13;65.15
27712;BME280;2377;51.734;8.950;2023-04-30T08:58:56;98596.63;;;13.12;64.55
27712;BME280;2377;51.734;8.950;2023-04-30T09:01:23;98601.75;;;13.12;63.81
27712;BME280;2377;51.734;8.950;2023-04-30T09:03:51;98596.53;;;13.25;66.04
27712;BME280;2377;51.734;8.950;2023-04-30T09:06:18;98598.16;;;13.45;65.23
27712;BME280;2377;51.734;8.950;2023-04-30T09:08:47;98602.91;;;13.48;63.07
27712;BME280;2377;51.734;8.950;2023-04-30T09:11:24;98597.84;;;13.60;67.04
27712;BME280;2377;51.734;8.950;2023-04-30T09:13:54;98601.81;;;13.81;66.03
27712;BME280;2377;51.734;8.950;2023-04-30T09:16:23;98601.44;;;13.95;65.62
27712;BME280;2377;51.734;8.950;2023-04-30T09:18:51;98596.81;;;14.04;65.00
27712;BME280;2377;51.734;8.950;2023-04-30T09:21:31;98597.03;;;14.21;66.23
27712;BME280;2377;51.734;8.950;2023-04-30T09:24:00;98595.41;;;14.38;66.34
27712;BME280;2377;51.734;8.950;2023-04-30T09:26:31;98593.47;;;14.52;65.16
27712;BME280;2377;51.734;8.950;2023-04-30T09:29:00;98598.56;;;14.59;64.10
27712;BME280;2377;51.734;8.950;2023-04-30T09:31:32;98602.72;;;14.72;65.63
27712;BME280;2377;51.734;8.950;2023-04-30T09:34:00;98606.69;;;14.86;64.23
27712;BME280;2377;51.734;8.950;2023-04-30T09:36:27;98602.09;;;14.88;64.93
27712;BME280;2377;51.734;8.950;2023-04-30T09:38:54;98598.97;;;14.86;63.98
27712;BME280;2377;51.734;8.950;2023-04-30T09:41:24;98599.53;;;14.88;64.03
27712;BME280;2377;51.734;8.950;2023-04-30T09:43:53;98604.09;;;14.86;60.96
27712;BME280;2377;51.734;8.950;2023-04-30T09:46:29;98595.56;;;14.74;58.05
27712;BME280;2377;51.734;8.950;2023-04-30T09:48:59;98592.31;;;14.48;58.06
27712;BME280;2377;51.734;8.950;2023-04-30T09:51:27;98588.28;;;14.22;58.17
27712;BME280;2377;51.734;8.950;2023-04-30T09:53:54;98585.31;;;14.07;59.65
27712;BME280;2377;51.734;8.950;2023-04-30T09:56:23;98592.66;;;14.03;58.80
27712;BME280;2377;51.734;8.950;2023-04-30T09:58:55;98592.38;;;14.11;59.50
27712;BME280;2377;51.734;8.950;2023-04-30T10:01:26;98588.66;;;14.26;61.75
27712;BME280;2377;51.734;8.950;2023-04-30T10:03:56;98581.25;;;14.48;60.55
27712;BME280;2377;51.734;8.950;2023-04-30T10:06:24;98582.84;;;14.49;58.83
27712;BME280;2377;51.734;8.950;2023-04-30T10:08:56;98582.59;;;14.50;60.98
27712;BME280;2377;51.734;8.950;2023-04-30T10:11:27;98588.31;;;14.71;62.22
27712;BME280;2377;51.734;8.950;2023-04-30T10:14:02;98581.72;;;14.75;57.22
27712;BME280;2377;51.734;8.950;2023-04-30T10:16:41;98580.38;;;14.72;61.57
27712;BME280;2377;51.734;8.950;2023-04-30T10:19:13;98579.06;;;14.93;62.69
27712;BME280;2377;51.734;8.950;2023-04-30T10:21:46;98567.31;;;15.09;60.63
27712;BME280;2377;51.734;8.950;2023-04-30T10:24:14;98566.66;;;15.14;58.99
27712;BME280;2377;51.734;8.950;2023-04-30T10:26:45;98567.44;;;15.26;59.40
27712;BME280;2377;51.734;8.950;2023-04-30T10:29:15;98565.44;;;15.28;57.25
27712;BME280;2377;51.734;8.950;2023-04-30T10:31:47;98569.81;;;15.16;55.76
27712;BME280;2377;51.734;8.950;2023-04-30T10:34:24;98569.47;;;15.00;54.82
27712;BME280;2377;51.734;8.950;2023-04-30T10:36:59;98569.09;;;14.97;56.23
27712;BME280;2377;51.734;8.950;2023-04-30T10:39:28;98567.31;;;14.97;56.31
27712;BME280;2377;51.734;8.950;2023-04-30T10:42:04;98560.50;;;15.03;58.55
27712;BME280;2377;51.734;8.950;2023-04-30T10:44:35;98566.09;;;15.00;54.75
27712;BME280;2377;51.734;8.950;2023-04-30T10:47:04;98559.34;;;14.87;54.25
27712;BME280;2377;51.734;8.950;2023-04-30T10:49:32;98557.44;;;14.83;54.58
27712;BME280;2377;51.734;8.950;2023-04-30T10:52:03;98552.47;;;14.69;54.50
27712;BME280;2377;51.734;8.950;2023-04-30T10:54:33;98552.84;;;14.73;55.15
27712;BME280;2377;51.734;8.950;2023-04-30T10:57:11;98554.31;;;14.92;57.23
27712;BME280;2377;51.734;8.950;2023-04-30T10:59:44;98555.03;;;15.11;57.13
27712;BME280;2377;51.734;8.950;2023-04-30T11:02:14;98556.16;;;15.27;58.24
27712;BME280;2377;51.734;8.950;2023-04-30T11:05:10;98550.34;;;15.32;57.50
27712;BME280;2377;51.734;8.950;2023-04-30T11:07:47;98549.09;;;15.34;56.74
27712;BME280;2377;51.734;8.950;2023-04-30T11:10:15;98551.22;;;15.26;53.05
27712;BME280;2377;51.734;8.950;2023-04-30T11:12:48;98553.47;;;15.22;54.80
27712;BME280;2377;51.734;8.950;2023-04-30T11:15:19;98536.22;;;15.34;55.39
27712;BME280;2377;51.734;8.950;2023-04-30T11:17:48;98544.06;;;15.39;54.10
27712;BME280;2377;51.734;8.950;2023-04-30T11:20:20;98544.84;;;15.28;54.53
27712;BME280;2377;51.734;8.950;2023-04-30T11:23:08;98534.09;;;15.31;54.91
27712;BME280;2377;51.734;8.950;2023-04-30T11:25:40;98529.50;;;15.33;53.13
27712;BME280;2377;51.734;8.950;2023-04-30T11:28:12;98530.28;;;15.34;52.78
27712;BME280;2377;51.734;8.950;2023-04-30T11:30:49;98528.94;;;15.31;51.14
27712;BME280;2377;51.734;8.950;2023-04-30T11:33:16;98533.63;;;15.34;51.72
27712;BME280;2377;51.734;8.950;2023-04-30T11:35:44;98534.97;;;15.25;53.42
27712;BME280;2377;51.734;8.950;2023-04-30T11:38:12;98524.47;;;15.38;54.02
27712;BME280;2377;51.734;8.950;2023-04-30T11:40:41;98530.19;;;15.40;53.43
27712;BME280;2377;51.734;8.950;2023-04-30T11:43:21;98524.66;;;15.49;54.02
27712;BME280;2377;51.734;8.950;2023-04-30T11:46:08;98519.50;;;15.60;53.33
27712;BME280;2377;51.734;8.950;2023-04-30T11:48:37;98510.31;;;15.53;51.71
27712;BME280;2377;51.734;8.950;2023-04-30T11:51:14;98514.56;;;15.47;53.50
27712;BME280;2377;51.734;8.950;2023-04-30T11:53:41;98520.19;;;15.56;55.44
27712;BME280;2377;51.734;8.950;2023-04-30T11:56:08;98503.81;;;15.62;54.19
27712;BME280;2377;51.734;8.950;2023-04-30T11:58:36;98510.63;;;15.68;52.95
27712;BME280;2377;51.734;8.950;2023-04-30T12:01:07;98501.34;;;15.67;52.56
27712;BME280;2377;51.734;8.950;2023-04-30T12:03:42;98511.00;;;15.60;53.69
27712;BME280;2377;51.734;8.950;2023-04-30T12:06:11;98508.75;;;15.52;52.14
27712;BME280;2377;51.734;8.950;2023-04-30T12:08:40;98499.69;;;15.49;53.33
27712;BME280;2377;51.734;8.950;2023-04-30T12:11:19;98498.56;;;15.57;54.67
27712;BME280;2377;51.734;8.950;2023-04-30T12:13:53;98493.16;;;15.70;54.27
27712;BME280;2377;51.734;8.950;2023-04-30T12:16:23;98494.50;;;15.73;55.60
27712;BME280;2377;51.734;8.950;2023-04-30T12:18:50;98501.00;;;15.75;54.29
27712;BME280;2377;51.734;8.950;2023-04-30T12:21:19;98504.22;;;15.82;54.68
27712;BME280;2377;51.734;8.950;2023-04-30T12:23:47;98500.31;;;15.80;52.77
27712;BME280;2377;51.734;8.950;2023-04-30T12:26:14;98498.88;;;15.72;51.05
27712;BME280;2377;51.734;8.950;2023-04-30T12:28:42;98491.91;;;15.61;49.50
27712;BME280;2377;51.734;8.950;2023-04-30T12:31:12;98495.63;;;15.65;51.88
27712;BME280;2377;51.734;8.950;2023-04-30T12:33:41;98496.97;;;15.79;54.06
27712;BME280;2377;51.734;8.950;2023-04-30T12:36:09;98493.00;;;15.89;54.83
27712;BME280;2377;51.734;8.950;2023-04-30T12:38:36;98492.75;;;16.02;54.90
27712;BME280;2377;51.734;8.950;2023-04-30T12:41:04;98488.66;;;16.06;55.63
27712;BME280;2377;51.734;8.950;2023-04-30T12:43:31;98481.78;;;15.95;49.05
27712;BME280;2377;51.734;8.950;2023-04-30T12:45:58;98487.28;;;15.87;49.45
27712;BME280;2377;51.734;8.950;2023-04-30T12:48:25;98477.00;;;15.75;48.47
27712;BME280;2377;51.734;8.950;2023-04-30T12:50:57;98476.72;;;15.71;52.20
27712;BME280;2377;51.734;8.950;2023-04-30T12:53:26;98475.47;;;15.74;50.10
27712;BME280;2377;51.734;8.950;2023-04-30T12:56:08;98473.75;;;15.79;51.16
27712;BME280;2377;51.734;8.950;2023-04-30T12:58:35;98465.13;;;15.85;52.60
27712;BME280;2377;51.734;8.950;2023-04-30T13:01:03;98465.06;;;15.97;51.78
27712;BME280;2377;51.734;8.950;2023-04-30T13:03:30;98457.28;;;16.09;52.94
27712;BME280;2377;51.734;8.950;2023-04-30T13:05:58;98457.59;;;16.13;51.87
27712;BME280;2377;51.734;8.950;2023-04-30T13:08:27;98452.47;;;16.01;50.60
27712;BME280;2377;51.734;8.950;2023-04-30T13:10:54;98444.09;;;15.94;50.47
27712;BME280;2377;51.734;8.950;2023-04-30T13:13:21;98443.00;;;15.90;51.35
27712;BME280;2377;51.734;8.950;2023-04-30T13:15:48;98451.63;;;15.95;52.57
27712;BME280;2377;51.734;8.950;2023-04-30T13:18:16;98439.28;;;15.97;50.46
27712;BME280;2377;51.734;8.950;2023-04-30T13:20:43;98440.84;;;15.98;52.52
27712;BME280;2377;51.734;8.950;2023-04-30T13:23:12;98437.56;;;16.03;53.13
27712;BME280;2377;51.734;8.950;2023-04-30T13:25:40;98432.56;;;16.13;50.93
27712;BME280;2377;51.734;8.950;2023-04-30T13:28:07;98428.53;;;16.17;51.39